Time;durP1;ratioP1;P1;durP2;ratioP2;P2;SDS_P1;SDS_P2;PMS_P1;PMS_P2;Temp;Humidity;BMP_temperature;BMP_pressure;BME280_temperature;BME280_humidity;BME280_pressure;Samples;Min_cycle;Max_cycle;Signal;HPM_P1;HPM_P2
2022/09/07 00:00:34;;;;;;;27.92;17.98;;;;;;;;;;5072424;28;20051;-78
2022/09/07 00:02:59;;;;;;;27.70;18.95;;;;;;;;;;5072153;28;20020;-79
2022/09/07 00:05:27;;;;;;;28.30;19.55;;;;;;;;;;5071862;28;20367;-78
2022/09/07 00:07:52;;;;;;;29.85;20.25;;;;;;;;;;5071728;28;20024;-78
2022/09/07 00:10:18;;;;;;;30.67;20.73;;;;;;;;;;5071419;28;20032;-78
2022/09/07 00:12:44;;;;;;;31.00;19.95;;;;;;;;;;5090101;28;20020;-78
2022/09/07 00:15:11;;;;;;;29.90;20.17;;;;;;;;;;5071824;28;20363;-78
2022/09/07 00:17:38;;;;;;;27.55;19.23;;;;;;;;;;5090275;28;20055;-78
2022/09/07 00:20:06;;;;;;;31.05;19.50;;;;;;;;;;5072746;28;20047;-78
2022/09/07 00:22:31;;;;;;;26.35;18.50;;;;;;;;;;5072647;28;20020;-78
2022/09/07 00:24:57;;;;;;;25.98;18.15;;;;;;;;;;5068687;28;20029;-78
2022/09/07 00:27:22;;;;;;;26.27;18.98;;;;;;;;;;5069028;28;20146;-78
2022/09/07 00:29:48;;;;;;;28.25;18.33;;;;;;;;;;5051524;28;20511;-78
2022/09/07 00:32:14;;;;;;;25.80;18.40;;;;;;;;;;5070167;28;20531;-79
2022/09/07 00:34:39;;;;;;;26.80;18.48;;;;;;;;;;5051309;28;20028;-79
2022/09/07 00:37:05;;;;;;;27.80;18.80;;;;;;;;;;5054187;28;20029;-79
2022/09/07 00:39:30;;;;;;;28.27;19.95;;;;;;;;;;5055657;28;20021;-79
2022/09/07 00:41:56;;;;;;;32.78;22.13;;;;;;;;;;5055644;28;20477;-77
2022/09/07 00:44:55;;;;;;;29.25;20.35;;;;;;;;;;5054112;28;20029;-78
2022/09/07 00:47:30;;;;;;;32.78;21.40;;;;;;;;;;5054790;28;20032;-78
2022/09/07 00:50:01;;;;;;;31.85;19.80;;;;;;;;;;5054687;28;20031;-78
2022/09/07 00:52:29;;;;;;;37.53;20.33;;;;;;;;;;5054438;28;20120;-78
2022/09/07 00:55:01;;;;;;;30.08;21.50;;;;;;;;;;5072275;28;20068;-76
2022/09/07 00:57:27;;;;;;;29.60;19.90;;;;;;;;;;5072225;28;20032;-76
2022/09/07 00:59:56;;;;;;;29.05;19.00;;;;;;;;;;5053947;28;20017;-77
2022/09/07 01:02:22;;;;;;;28.67;19.42;;;;;;;;;;5053889;28;20028;-75
2022/09/07 01:04:51;;;;;;;29.95;19.67;;;;;;;;;;5054074;28;20071;-76
2022/09/07 01:07:17;;;;;;;28.58;19.50;;;;;;;;;;5054050;28;20392;-76
2022/09/07 01:09:46;;;;;;;29.20;18.20;;;;;;;;;;5053973;28;20028;-76
2022/09/07 01:12:12;;;;;;;37.53;20.08;;;;;;;;;;5054085;28;20028;-77
2022/09/07 01:14:45;;;;;;;30.30;19.92;;;;;;;;;;5053953;28;20085;-77
2022/09/07 01:17:16;;;;;;;31.02;19.15;;;;;;;;;;5054143;28;20158;-76
2022/09/07 01:20:06;;;;;;;26.50;18.55;;;;;;;;;;5072302;28;20028;-77
2022/09/07 01:22:59;;;;;;;27.00;17.83;;;;;;;;;;5055825;28;20035;-77
2022/09/07 01:25:30;;;;;;;26.40;17.05;;;;;;;;;;5072487;28;20499;-77
2022/09/07 01:28:11;;;;;;;27.88;19.27;;;;;;;;;;5072817;28;20028;-78
2022/09/07 01:30:38;;;;;;;31.00;19.52;;;;;;;;;;5032604;28;20041;-76
2022/09/07 01:33:13;;;;;;;33.33;20.08;;;;;;;;;;5030742;28;20036;-76
2022/09/07 01:36:09;;;;;;;28.52;18.90;;;;;;;;;;5030126;28;20026;-78
2022/09/07 01:38:53;;;;;;;28.58;19.25;;;;;;;;;;5031879;28;20029;-76
2022/09/07 01:41:37;;;;;;;28.08;18.85;;;;;;;;;;5031532;28;20037;-76
2022/09/07 01:44:18;;;;;;;28.88;18.60;;;;;;;;;;5031231;28;20045;-79
2022/09/07 01:47:05;;;;;;;27.27;18.80;;;;;;;;;;5030351;28;20543;-76
2022/09/07 01:49:40;;;;;;;27.67;17.98;;;;;;;;;;5029719;28;20545;-77
2022/09/07 01:52:12;;;;;;;25.95;18.17;;;;;;;;;;5030110;28;20033;-77
2022/09/07 01:54:44;;;;;;;25.15;16.88;;;;;;;;;;5031320;28;20037;-76
2022/09/07 01:57:15;;;;;;;23.58;17.15;;;;;;;;;;5031343;28;20035;-76
2022/09/07 01:59:54;;;;;;;23.02;17.25;;;;;;;;;;5031335;28;20367;-76
2022/09/07 02:02:25;;;;;;;23.38;16.67;;;;;;;;;;5030146;28;20017;-76
2022/09/07 02:05:02;;;;;;;24.83;18.23;;;;;;;;;;5030307;28;20021;-76
2022/09/07 02:07:42;;;;;;;24.67;17.63;;;;;;;;;;5029561;28;20031;-76
2022/09/07 02:10:16;;;;;;;21.38;16.38;;;;;;;;;;5029936;28;20112;-78
2022/09/07 02:13:03;;;;;;;25.50;17.98;;;;;;;;;;5029886;28;20064;-78
2022/09/07 02:15:42;;;;;;;23.77;17.35;;;;;;;;;;5029637;28;20420;-77
2022/09/07 02:18:12;;;;;;;25.58;17.33;;;;;;;;;;5032449;28;20033;-76
2022/09/07 02:20:40;;;;;;;23.83;16.88;;;;;;;;;;5034262;28;20078;-75
2022/09/07 02:23:12;;;;;;;22.52;16.40;;;;;;;;;;5034686;28;20029;-79
2022/09/07 02:25:59;;;;;;;26.33;18.58;;;;;;;;;;5051109;28;20119;-77
2022/09/07 02:28:37;;;;;;;21.45;15.80;;;;;;;;;;5056318;28;20080;-77
2022/09/07 02:31:03;;;;;;;22.25;16.08;;;;;;;;;;5069991;28;20101;-77
2022/09/07 02:33:29;;;;;;;23.15;16.65;;;;;;;;;;5070653;28;20453;-77
2022/09/07 02:35:55;;;;;;;20.95;16.30;;;;;;;;;;5070755;28;20048;-77
2022/09/07 02:38:23;;;;;;;25.17;17.17;;;;;;;;;;5070202;28;20031;-77
2022/09/07 02:40:51;;;;;;;29.55;17.10;;;;;;;;;;5070675;28;20025;-77
2022/09/07 02:43:17;;;;;;;31.63;19.25;;;;;;;;;;5070413;28;20027;-77
2022/09/07 02:46:12;;;;;;;35.80;18.42;;;;;;;;;;5068743;28;20024;-77
2022/09/07 02:49:00;;;;;;;28.27;18.30;;;;;;;;;;5068530;28;20025;-76
2022/09/07 02:51:36;;;;;;;25.67;17.55;;;;;;;;;;5068760;28;20508;-77
2022/09/07 02:54:07;;;;;;;27.95;18.70;;;;;;;;;;5068877;28;20028;-77
2022/09/07 02:56:39;;;;;;;33.40;17.80;;;;;;;;;;5068509;28;20036;-77
2022/09/07 02:59:19;;;;;;;24.20;16.10;;;;;;;;;;5069662;28;20120;-78
2022/09/07 03:02:01;;;;;;;25.83;18.70;;;;;;;;;;5068621;28;20032;-77
2022/09/07 03:04:47;;;;;;;25.38;16.15;;;;;;;;;;5068539;28;20059;-76
2022/09/07 03:07:25;;;;;;;23.13;16.23;;;;;;;;;;5069757;28;20067;-76
2022/09/07 03:09:53;;;;;;;29.83;17.83;;;;;;;;;;5068981;28;20069;-77
2022/09/07 03:12:20;;;;;;;25.13;17.63;;;;;;;;;;5069938;28;20039;-77
2022/09/07 03:14:45;;;;;;;37.58;16.77;;;;;;;;;;5068957;28;20468;-77
2022/09/07 03:17:12;;;;;;;20.95;16.48;;;;;;;;;;5069586;28;20037;-77
2022/09/07 03:19:37;;;;;;;24.02;16.63;;;;;;;;;;5068569;28;20446;-77
2022/09/07 03:22:03;;;;;;;22.95;15.23;;;;;;;;;;5068557;28;20040;-76
2022/09/07 03:24:29;;;;;;;22.15;15.18;;;;;;;;;;5061150;28;20036;-77
2022/09/07 03:26:56;;;;;;;30.90;16.38;;;;;;;;;;5049167;28;20033;-78
2022/09/07 03:29:21;;;;;;;22.17;16.05;;;;;;;;;;5049726;28;20056;-77
2022/09/07 03:31:47;;;;;;;18.88;14.38;;;;;;;;;;5050410;28;20036;-77
2022/09/07 03:34:12;;;;;;;20.08;14.48;;;;;;;;;;5048535;28;20029;-77
2022/09/07 03:36:38;;;;;;;19.48;14.30;;;;;;;;;;5049954;28;20033;-76
2022/09/07 03:39:06;;;;;;;21.38;13.70;;;;;;;;;;5049144;28;20031;-77
2022/09/07 03:41:32;;;;;;;23.58;14.57;;;;;;;;;;5049160;28;20036;-77
2022/09/07 03:44:03;;;;;;;20.58;14.90;;;;;;;;;;5050590;28;20071;-76
2022/09/07 03:46:29;;;;;;;25.83;15.82;;;;;;;;;;5048276;28;20033;-77
2022/09/07 03:48:55;;;;;;;24.38;17.58;;;;;;;;;;5048317;28;20029;-76
2022/09/07 03:51:21;;;;;;;26.77;17.38;;;;;;;;;;5063830;28;20048;-76
2022/09/07 03:53:46;;;;;;;27.58;17.90;;;;;;;;;;5068612;28;20678;-76
2022/09/07 03:56:24;;;;;;;25.95;16.83;;;;;;;;;;5068231;28;20025;-77
2022/09/07 03:58:51;;;;;;;22.52;15.85;;;;;;;;;;5067719;28;20067;-77
2022/09/07 04:01:23;;;;;;;25.17;15.88;;;;;;;;;;5068133;28;20029;-77
2022/09/07 04:03:49;;;;;;;28.67;16.42;;;;;;;;;;5068232;28;20029;-76
2022/09/07 04:06:16;;;;;;;28.13;17.85;;;;;;;;;;5069649;28;20035;-76
2022/09/07 04:08:42;;;;;;;25.05;17.10;;;;;;;;;;5068829;28;20104;-77
2022/09/07 04:11:11;;;;;;;29.20;17.50;;;;;;;;;;5068910;28;20056;-77
2022/09/07 04:13:36;;;;;;;28.42;16.50;;;;;;;;;;5071708;28;20452;-76
2022/09/07 04:16:22;;;;;;;22.48;15.15;;;;;;;;;;5071882;28;20054;-78
2022/09/07 04:18:53;;;;;;;23.77;16.10;;;;;;;;;;5071769;28;20043;-77
2022/09/07 04:21:19;;;;;;;26.60;16.23;;;;;;;;;;5071779;28;20127;-79
2022/09/07 04:23:45;;;;;;;25.38;15.55;;;;;;;;;;5074008;28;20082;-76
2022/09/07 04:26:19;;;;;;;24.50;16.58;;;;;;;;;;5074205;28;20028;-77
2022/09/07 04:28:45;;;;;;;24.48;19.00;;;;;;;;;;5078639;28;20040;-77
2022/09/07 04:31:13;;;;;;;22.33;14.88;;;;;;;;;;5091445;28;20024;-78
2022/09/07 04:33:38;;;;;;;26.13;15.65;;;;;;;;;;5091179;28;20429;-76
2022/09/07 04:36:04;;;;;;;19.52;14.48;;;;;;;;;;5091477;28;20051;-77
2022/09/07 04:38:30;;;;;;;21.60;14.45;;;;;;;;;;5090828;28;20111;-77
2022/09/07 04:41:08;;;;;;;21.08;14.00;;;;;;;;;;5091662;28;20115;-77
2022/09/07 04:43:34;;;;;;;20.95;14.60;;;;;;;;;;5091342;28;20023;-79
2022/09/07 04:46:09;;;;;;;25.25;15.80;;;;;;;;;;5094058;28;20035;-78
2022/09/07 04:48:35;;;;;;;24.83;15.02;;;;;;;;;;5091476;28;20024;-78
2022/09/07 04:51:08;;;;;;;25.80;15.05;;;;;;;;;;5091535;28;20055;-78
2022/09/07 04:53:35;;;;;;;20.20;14.52;;;;;;;;;;5091079;28;20024;-76
2022/09/07 04:56:01;;;;;;;30.25;15.20;;;;;;;;;;5091105;28;20566;-77
2022/09/07 04:58:26;;;;;;;20.05;14.00;;;;;;;;;;5090891;28;20043;-76
2022/09/07 05:00:52;;;;;;;27.58;16.05;;;;;;;;;;5090771;28;20024;-77
2022/09/07 05:03:18;;;;;;;20.40;14.25;;;;;;;;;;5091258;28;20035;-77
2022/09/07 05:05:43;;;;;;;21.70;14.05;;;;;;;;;;5091792;28;20051;-79
2022/09/07 05:08:10;;;;;;;20.23;14.02;;;;;;;;;;5090883;28;20031;-77
2022/09/07 05:10:35;;;;;;;22.98;14.60;;;;;;;;;;5092160;28;20085;-78
2022/09/07 05:13:01;;;;;;;18.25;13.80;;;;;;;;;;5078919;28;20028;-77
2022/09/07 05:15:30;;;;;;;17.27;13.52;;;;;;;;;;5073265;28;20036;-77
2022/09/07 05:17:58;;;;;;;22.48;15.00;;;;;;;;;;5073376;28;20055;-78
2022/09/07 05:20:24;;;;;;;18.63;14.57;;;;;;;;;;5070519;28;20049;-77
2022/09/07 05:22:58;;;;;;;16.92;12.55;;;;;;;;;;5088635;28;20032;-78
2022/09/07 05:25:27;;;;;;;19.33;12.48;;;;;;;;;;5088111;28;20807;-78
2022/09/07 05:27:54;;;;;;;16.30;11.50;;;;;;;;;;5057263;28;20531;-78
2022/09/07 05:30:20;;;;;;;19.85;12.85;;;;;;;;;;5092318;28;20153;-77
2022/09/07 05:32:46;;;;;;;13.38;10.60;;;;;;;;;;5074220;28;20046;-79
2022/09/07 05:35:11;;;;;;;13.13;10.60;;;;;;;;;;5057312;28;20040;-79
2022/09/07 05:37:38;;;;;;;15.48;11.18;;;;;;;;;;5074860;28;20042;-79
2022/09/07 05:40:04;;;;;;;17.98;11.63;;;;;;;;;;5092375;28;20038;-78
2022/09/07 05:42:30;;;;;;;16.95;11.13;;;;;;;;;;5081365;28;20051;-77
2022/09/07 05:44:56;;;;;;;14.93;11.63;;;;;;;;;;5067457;28;20594;-78
2022/09/07 05:47:23;;;;;;;13.55;11.27;;;;;;;;;;5065106;28;20028;-78
2022/09/07 05:49:48;;;;;;;14.63;10.75;;;;;;;;;;5066514;28;20028;-79
2022/09/07 05:52:14;;;;;;;14.27;11.52;;;;;;;;;;5079837;28;20564;-77
2022/09/07 05:54:40;;;;;;;17.35;11.73;;;;;;;;;;5060312;28;20043;-78
2022/09/07 05:57:06;;;;;;;15.43;11.27;;;;;;;;;;5063734;28;20039;-77
2022/09/07 05:59:32;;;;;;;21.17;12.95;;;;;;;;;;5062494;28;20120;-77
2022/09/07 06:01:58;;;;;;;16.27;11.50;;;;;;;;;;5050504;28;20038;-77
2022/09/07 06:04:23;;;;;;;13.98;11.38;;;;;;;;;;5058345;28;20028;-78
2022/09/07 06:06:49;;;;;;;13.52;11.02;;;;;;;;;;5063757;28;20543;-77
2022/09/07 06:09:14;;;;;;;13.85;9.95;;;;;;;;;;5074364;28;20039;-76
2022/09/07 06:11:41;;;;;;;28.55;20.52;;;;;;;;;;5060113;28;20048;-80
2022/09/07 06:14:06;;;;;;;19.15;12.20;;;;;;;;;;5080579;28;20097;-79
2022/09/07 06:16:33;;;;;;;16.88;12.95;;;;;;;;;;5082536;28;20035;-79
2022/09/07 06:19:05;;;;;;;22.90;12.35;;;;;;;;;;5081994;28;20154;-79
2022/09/07 06:21:34;;;;;;;16.40;11.70;;;;;;;;;;5061575;28;20032;-78
2022/09/07 06:23:59;;;;;;;17.80;13.48;;;;;;;;;;5061792;28;20036;-78
2022/09/07 06:26:25;;;;;;;17.77;13.02;;;;;;;;;;5060771;28;20032;-79
2022/09/07 06:28:51;;;;;;;24.73;14.18;;;;;;;;;;5080653;28;20036;-78
2022/09/07 06:31:19;;;;;;;17.77;13.80;;;;;;;;;;5062865;28;20512;-78
2022/09/07 06:33:46;;;;;;;19.42;12.90;;;;;;;;;;5045533;28;20032;-74
2022/09/07 06:36:23;;;;;;;21.40;14.98;;;;;;;;;;5064498;28;20039;-75
2022/09/07 06:38:50;;;;;;;22.02;14.02;;;;;;;;;;5053830;28;20016;-75
2022/09/07 06:41:18;;;;;;;25.05;16.33;;;;;;;;;;5071815;28;20043;-75
2022/09/07 06:43:44;;;;;;;23.70;17.27;;;;;;;;;;5076898;28;20494;-75
2022/09/07 06:46:10;;;;;;;21.52;16.60;;;;;;;;;;5057648;28;20081;-77
2022/09/07 06:48:36;;;;;;;23.20;16.02;;;;;;;;;;5027855;28;20031;-77
2022/09/07 06:51:17;;;;;;;18.88;13.88;;;;;;;;;;5058791;28;20032;-77
2022/09/07 06:53:44;;;;;;;17.60;13.63;;;;;;;;;;5044464;28;20086;-76
2022/09/07 06:56:12;;;;;;;16.75;12.88;;;;;;;;;;5059000;28;20036;-76
2022/09/07 06:58:38;;;;;;;18.30;14.32;;;;;;;;;;5048416;28;20654;-74
2022/09/07 07:01:06;;;;;;;17.55;12.35;;;;;;;;;;5072390;28;20039;-75
2022/09/07 07:03:33;;;;;;;21.77;14.80;;;;;;;;;;5055454;28;20062;-78
2022/09/07 07:05:59;;;;;;;18.30;14.48;;;;;;;;;;5061441;28;20031;-76
2022/09/07 07:08:25;;;;;;;22.05;14.35;;;;;;;;;;5056641;28;20031;-76
2022/09/07 07:10:51;;;;;;;17.45;13.93;;;;;;;;;;5073354;28;20138;-77
2022/09/07 07:13:18;;;;;;;17.67;14.00;;;;;;;;;;5072850;28;20030;-75
2022/09/07 07:15:44;;;;;;;19.85;13.80;;;;;;;;;;5062230;28;20028;-72
2022/09/07 07:18:10;;;;;;;22.33;14.68;;;;;;;;;;5060764;28;20402;-76
2022/09/07 07:20:40;;;;;;;21.88;14.75;;;;;;;;;;5061908;28;20507;-75
2022/09/07 07:23:06;;;;;;;19.58;14.85;;;;;;;;;;5058943;28;20099;-75
2022/09/07 07:25:36;;;;;;;23.70;15.75;;;;;;;;;;5052607;28;20412;-76
2022/09/07 07:28:05;;;;;;;21.05;14.57;;;;;;;;;;5058546;28;20034;-76
2022/09/07 07:30:30;;;;;;;23.90;15.27;;;;;;;;;;5058226;28;20065;-77
2022/09/07 07:32:59;;;;;;;20.95;15.25;;;;;;;;;;5056304;28;20035;-75
2022/09/07 07:35:25;;;;;;;22.85;15.73;;;;;;;;;;5072582;28;20345;-76
2022/09/07 07:37:52;;;;;;;18.52;14.43;;;;;;;;;;5056535;28;20028;-76
2022/09/07 07:40:18;;;;;;;27.00;15.75;;;;;;;;;;5063533;28;20127;-77
2022/09/07 07:42:45;;;;;;;21.27;15.40;;;;;;;;;;5056403;28;20028;-77
2022/09/07 07:45:13;;;;;;;22.83;15.27;;;;;;;;;;5082489;28;20881;-75
2022/09/07 07:47:39;;;;;;;24.38;14.90;;;;;;;;;;5079997;28;20039;-76
2022/09/07 07:50:05;;;;;;;21.60;15.38;;;;;;;;;;5065014;28;20036;-76
2022/09/07 07:52:36;;;;;;;17.73;14.63;;;;;;;;;;5059915;28;20047;-76
2022/09/07 07:55:02;;;;;;;18.73;15.50;;;;;;;;;;5079679;28;20053;-75
2022/09/07 07:57:28;;;;;;;23.23;15.15;;;;;;;;;;5063199;28;20455;-76
2022/09/07 07:59:55;;;;;;;39.22;24.13;;;;;;;;;;5080221;28;20437;-76
2022/09/07 08:02:21;;;;;;;23.30;15.70;;;;;;;;;;5076532;28;20555;-76
2022/09/07 08:04:47;;;;;;;21.58;14.15;;;;;;;;;;5078503;28;20036;-76
2022/09/07 08:07:13;;;;;;;17.50;14.20;;;;;;;;;;5062085;28;20104;-76
2022/09/07 08:09:40;;;;;;;18.73;14.25;;;;;;;;;;5077127;28;20119;-73
2022/09/07 08:12:07;;;;;;;19.58;14.25;;;;;;;;;;5062111;28;20020;-75
2022/09/07 08:14:35;;;;;;;16.52;14.38;;;;;;;;;;5079801;28;20035;-74
2022/09/07 08:17:00;;;;;;;16.13;13.30;;;;;;;;;;5062720;28;20032;-76
2022/09/07 08:19:26;;;;;;;16.23;13.95;;;;;;;;;;5078536;28;20484;-75
2022/09/07 08:21:52;;;;;;;21.52;14.55;;;;;;;;;;5061965;28;20119;-76
2022/09/07 08:24:18;;;;;;;19.27;15.02;;;;;;;;;;5082305;28;20882;-75
2022/09/07 08:26:43;;;;;;;17.55;14.63;;;;;;;;;;5065651;28;20823;-76
2022/09/07 08:29:09;;;;;;;17.50;13.75;;;;;;;;;;5063206;28;20051;-76
2022/09/07 08:31:37;;;;;;;16.33;13.32;;;;;;;;;;5077860;28;20028;-76
2022/09/07 08:34:02;;;;;;;17.52;14.30;;;;;;;;;;5077918;28;20047;-76
2022/09/07 08:36:30;;;;;;;18.40;13.57;;;;;;;;;;5059962;28;20032;-77
2022/09/07 08:38:57;;;;;;;17.15;14.00;;;;;;;;;;5056265;28;20032;-76
2022/09/07 08:41:47;;;;;;;17.17;13.30;;;;;;;;;;5076321;28;20024;-78
2022/09/07 08:44:22;;;;;;;23.05;15.27;;;;;;;;;;5059640;28;20031;-76
2022/09/07 08:46:55;;;;;;;17.50;14.27;;;;;;;;;;5077863;28;20031;-76
2022/09/07 08:50:00;;;;;;;19.83;14.02;;;;;;;;;;5076975;28;20031;-78
2022/09/07 08:52:33;;;;;;;17.65;14.18;;;;;;;;;;5075964;28;20372;-77
2022/09/07 08:55:13;;;;;;;16.38;13.95;;;;;;;;;;5073934;28;20052;-76
2022/09/07 08:57:45;;;;;;;16.83;14.40;;;;;;;;;;5048468;28;20032;-74
2022/09/07 09:00:14;;;;;;;16.20;13.00;;;;;;;;;;5076192;28;20043;-77
2022/09/07 09:02:40;;;;;;;18.15;13.88;;;;;;;;;;5066821;28;20028;-77
2022/09/07 09:05:39;;;;;;;17.90;13.55;;;;;;;;;;5041426;28;20028;-77
2022/09/07 09:08:09;;;;;;;20.92;14.18;;;;;;;;;;5070697;28;20067;-76
2022/09/07 09:10:47;;;;;;;20.83;14.45;;;;;;;;;;5077338;28;20444;-76
2022/09/07 09:13:29;;;;;;;15.00;13.45;;;;;;;;;;5055266;28;20050;-77
2022/09/07 09:16:08;;;;;;;15.10;12.82;;;;;;;;;;5057787;28;20259;-75
2022/09/07 09:18:58;;;;;;;19.77;14.25;;;;;;;;;;5060784;28;20035;-77
2022/09/07 09:21:25;;;;;;;23.58;14.07;;;;;;;;;;5074204;28;20026;-77
2022/09/07 09:23:59;;;;;;;17.88;13.27;;;;;;;;;;5054762;28;20669;-76
2022/09/07 09:26:27;;;;;;;16.73;14.27;;;;;;;;;;5059028;28;20038;-75
2022/09/07 09:28:53;;;;;;;14.52;13.07;;;;;;;;;;5075239;28;20048;-76
2022/09/07 09:31:22;;;;;;;17.00;12.68;;;;;;;;;;5076823;28;20020;-76
2022/09/07 09:34:16;;;;;;;18.27;13.40;;;;;;;;;;5073282;28;20512;-75
2022/09/07 09:37:22;;;;;;;18.80;13.43;;;;;;;;;;5061084;28;20494;-77
2022/09/07 09:39:56;;;;;;;14.55;12.35;;;;;;;;;;5068919;28;20175;-76
2022/09/07 09:42:23;;;;;;;18.50;13.60;;;;;;;;;;5071381;28;20032;-77
2022/09/07 09:44:49;;;;;;;17.40;13.05;;;;;;;;;;5056910;28;20028;-76
2022/09/07 09:47:36;;;;;;;16.98;14.00;;;;;;;;;;5076091;28;20042;-77
2022/09/07 09:50:05;;;;;;;16.02;12.38;;;;;;;;;;5077255;28;20479;-77
2022/09/07 09:52:34;;;;;;;14.20;12.15;;;;;;;;;;5063352;28;20062;-76
2022/09/07 09:55:00;;;;;;;14.18;12.25;;;;;;;;;;5062025;28;20031;-75
2022/09/07 09:57:49;;;;;;;15.70;12.73;;;;;;;;;;5061286;28;20027;-77
2022/09/07 10:00:17;;;;;;;16.65;13.00;;;;;;;;;;5079761;28;20632;-74
2022/09/07 10:02:58;;;;;;;15.30;13.30;;;;;;;;;;5061213;28;20039;-76
2022/09/07 10:05:36;;;;;;;17.75;12.85;;;;;;;;;;5059642;28;20052;-77
2022/09/07 10:08:05;;;;;;;19.70;12.15;;;;;;;;;;5055777;28;20039;-75
2022/09/07 10:10:31;;;;;;;14.07;12.57;;;;;;;;;;5059962;28;20035;-76
2022/09/07 10:12:56;;;;;;;14.32;12.10;;;;;;;;;;5042060;28;20051;-77
2022/09/07 10:15:40;;;;;;;13.88;11.63;;;;;;;;;;5079526;28;20340;-77
2022/09/07 10:18:20;;;;;;;15.77;12.23;;;;;;;;;;5079475;28;20030;-76
2022/09/07 10:20:45;;;;;;;15.98;12.55;;;;;;;;;;5055757;28;20392;-78
2022/09/07 10:23:24;;;;;;;18.25;11.95;;;;;;;;;;5075441;28;20036;-76
2022/09/07 10:25:50;;;;;;;13.02;11.45;;;;;;;;;;5061343;28;20036;-77
2022/09/07 10:28:24;;;;;;;14.20;12.15;;;;;;;;;;5059401;28;20431;-76
2022/09/07 10:31:11;;;;;;;11.35;10.18;;;;;;;;;;5060407;28;20129;-75
2022/09/07 10:34:18;;;;;;;15.05;12.15;;;;;;;;;;5074368;28;20038;-75
2022/09/07 10:36:51;;;;;;;18.52;10.93;;;;;;;;;;5050420;28;20510;-76
2022/09/07 10:39:26;;;;;;;12.45;10.75;;;;;;;;;;5066408;28;20769;-76
2022/09/07 10:42:24;;;;;;;27.83;12.35;;;;;;;;;;5059690;28;20058;-75
2022/09/07 10:45:13;;;;;;;15.15;12.52;;;;;;;;;;5062924;28;20480;-74
2022/09/07 10:47:59;;;;;;;15.95;11.32;;;;;;;;;;5085869;28;20044;-76
2022/09/07 10:50:33;;;;;;;14.40;10.63;;;;;;;;;;5072035;28;20120;-76
2022/09/07 10:53:23;;;;;;;16.42;11.50;;;;;;;;;;5064934;28;20510;-76
2022/09/07 10:56:19;;;;;;;12.80;11.38;;;;;;;;;;5082513;28;20066;-76
2022/09/07 10:59:22;;;;;;;12.15;10.80;;;;;;;;;;5063857;28;20345;-76
2022/09/07 11:02:11;;;;;;;16.13;11.40;;;;;;;;;;5056988;28;20755;-76
2022/09/07 11:04:45;;;;;;;14.38;11.05;;;;;;;;;;5060811;28;20603;-76
2022/09/07 11:07:45;;;;;;;14.32;10.98;;;;;;;;;;5057196;28;20151;-74
2022/09/07 11:10:38;;;;;;;18.85;11.90;;;;;;;;;;5061906;28;20031;-74
2022/09/07 11:13:08;;;;;;;13.65;11.40;;;;;;;;;;5058551;28;20111;-75
2022/09/07 11:15:42;;;;;;;12.25;10.55;;;;;;;;;;5058995;28;20031;-77
2022/09/07 11:18:54;;;;;;;13.82;11.73;;;;;;;;;;5077524;28;20027;-78
2022/09/07 11:21:24;;;;;;;13.90;10.85;;;;;;;;;;5060747;28;20097;-75
2022/09/07 11:24:16;;;;;;;17.37;10.53;;;;;;;;;;5045879;28;20039;-77
2022/09/07 11:26:52;;;;;;;14.27;10.63;;;;;;;;;;5028097;28;20067;-77
2022/09/07 11:30:18;;;;;;;15.90;11.60;;;;;;;;;;5053114;28;20049;-76
2022/09/07 11:32:53;;;;;;;15.70;12.00;;;;;;;;;;5039250;28;20176;-76
2022/09/07 11:35:30;;;;;;;14.75;10.32;;;;;;;;;;5056744;28;20083;-76
2022/09/07 11:38:04;;;;;;;13.95;10.90;;;;;;;;;;5053817;28;20033;-76
2022/09/07 11:40:32;;;;;;;13.13;10.73;;;;;;;;;;5054447;28;20063;-74
2022/09/07 11:43:23;;;;;;;18.25;11.80;;;;;;;;;;5069851;28;20078;-76
2022/09/07 11:46:11;;;;;;;;;;;;;;;;;;5056087;28;20086;-77
2022/09/07 11:48:43;;;;;;;11.93;9.85;;;;;;;;;;5053925;28;19936;-76
2022/09/07 11:51:29;;;;;;;26.63;14.77;;;;;;;;;;5057275;28;20036;-76
2022/09/07 11:54:30;;;;;;;15.40;11.95;;;;;;;;;;5054169;28;20038;-76
2022/09/07 11:57:10;;;;;;;12.00;10.57;;;;;;;;;;5047057;28;20032;-76
2022/09/07 12:00:05;;;;;;;15.13;10.45;;;;;;;;;;5052675;28;20020;-76
2022/09/07 12:03:00;;;;;;;22.35;11.27;;;;;;;;;;5047562;28;20551;-75
2022/09/07 12:05:47;;;;;;;10.10;9.10;;;;;;;;;;5047372;28;20025;-78
2022/09/07 12:08:37;;;;;;;13.48;10.23;;;;;;;;;;5052177;28;21026;-75
2022/09/07 12:11:08;;;;;;;14.70;9.95;;;;;;;;;;5055949;28;20105;-76
2022/09/07 12:14:00;;;;;;;20.85;10.15;;;;;;;;;;5050943;28;20036;-74
2022/09/07 12:16:28;;;;;;;17.42;11.77;;;;;;;;;;5050781;28;20720;-73
2022/09/07 12:19:17;;;;;;;11.65;10.27;;;;;;;;;;5048493;28;20041;-77
2022/09/07 12:21:55;;;;;;;13.48;11.13;;;;;;;;;;5049057;28;20024;-76
2022/09/07 12:24:47;;;;;;;19.20;12.23;;;;;;;;;;5050377;28;20036;-77
2022/09/07 12:27:18;;;;;;;16.88;12.98;;;;;;;;;;5051336;28;20108;-75
2022/09/07 12:29:45;;;;;;;18.48;11.50;;;;;;;;;;5069182;28;20093;-78
2022/09/07 12:32:11;;;;;;;19.23;11.02;;;;;;;;;;5077407;28;20040;-76
2022/09/07 12:34:53;;;;;;;15.82;11.38;;;;;;;;;;5058193;28;20060;-75
2022/09/07 12:37:36;;;;;;;13.93;10.85;;;;;;;;;;5079511;28;20043;-74
2022/09/07 12:40:28;;;;;;;17.55;10.30;;;;;;;;;;5061229;28;20051;-76
2022/09/07 12:43:12;;;;;;;13.02;10.07;;;;;;;;;;5012463;28;20036;-74
2022/09/07 12:45:38;;;;;;;15.63;10.57;;;;;;;;;;5057943;28;20044;-76
2022/09/07 12:48:30;;;;;;;13.02;10.45;;;;;;;;;;5061112;28;20428;-76
2022/09/07 12:51:04;;;;;;;16.02;10.07;;;;;;;;;;5081326;28;20472;-77
2022/09/07 12:54:16;;;;;;;11.43;9.32;;;;;;;;;;5076225;28;20043;-74
2022/09/07 12:56:58;;;;;;;19.48;10.77;;;;;;;;;;5072718;28;20082;-74
2022/09/07 12:59:55;;;;;;;11.25;9.43;;;;;;;;;;5058629;28;20074;-76
2022/09/07 13:02:53;;;;;;;16.83;9.18;;;;;;;;;;5056547;28;20101;-77
2022/09/07 13:05:33;;;;;;;11.40;8.57;;;;;;;;;;5056724;28;20032;-77
2022/09/07 13:08:39;;;;;;;12.98;9.35;;;;;;;;;;5063067;28;20197;-76
2022/09/07 13:11:20;;;;;;;10.85;8.73;;;;;;;;;;5060911;28;20056;-76
2022/09/07 13:14:03;;;;;;;11.02;8.70;;;;;;;;;;5058985;28;20050;-77
2022/09/07 13:16:37;;;;;;;20.73;10.10;;;;;;;;;;5059212;28;20067;-76
2022/09/07 13:19:05;;;;;;;13.82;8.80;;;;;;;;;;5060437;28;20098;-76
2022/09/07 13:21:36;;;;;;;12.45;7.70;;;;;;;;;;5061817;28;20336;-77
2022/09/07 13:24:17;;;;;;;12.20;8.45;;;;;;;;;;5082685;28;20115;-76
2022/09/07 13:27:04;;;;;;;13.48;8.73;;;;;;;;;;5063972;28;20040;-76
2022/09/07 13:29:53;;;;;;;12.20;9.40;;;;;;;;;;5078511;28;20607;-78
2022/09/07 13:32:23;;;;;;;11.48;9.45;;;;;;;;;;5064213;28;20168;-77
2022/09/07 13:35:01;;;;;;;16.83;9.03;;;;;;;;;;5084132;28;20408;-76
2022/09/07 13:37:28;;;;;;;9.13;8.23;;;;;;;;;;5058992;28;20036;-74
2022/09/07 13:39:57;;;;;;;10.52;7.97;;;;;;;;;;5063926;28;20426;-77
2022/09/07 13:42:30;;;;;;;8.00;7.03;;;;;;;;;;5084474;28;20023;-77
2022/09/07 13:44:59;;;;;;;9.50;7.53;;;;;;;;;;5068244;28;20514;-77
2022/09/07 13:47:32;;;;;;;12.07;7.38;;;;;;;;;;5079860;28;20698;-77
2022/09/07 13:50:07;;;;;;;11.35;7.47;;;;;;;;;;5067638;28;20131;-75
2022/09/07 13:52:49;;;;;;;12.05;6.88;;;;;;;;;;5068054;28;20031;-76
2022/09/07 13:55:48;;;;;;;13.73;6.47;;;;;;;;;;5084077;28;20062;-77
2022/09/07 13:58:26;;;;;;;12.27;6.68;;;;;;;;;;5068417;28;20365;-76
2022/09/07 14:00:59;;;;;;;8.00;5.68;;;;;;;;;;5060282;28;20028;-77
2022/09/07 14:03:29;;;;;;;11.60;6.18;;;;;;;;;;5068523;28;20056;-77
2022/09/07 14:06:13;;;;;;;13.25;5.95;;;;;;;;;;5071244;28;20040;-77
2022/09/07 14:08:39;;;;;;;7.93;5.90;;;;;;;;;;5068444;28;20059;-78
2022/09/07 14:11:19;;;;;;;8.52;5.40;;;;;;;;;;5068754;28;20103;-77
2022/09/07 14:13:45;;;;;;;10.80;5.63;;;;;;;;;;5063749;28;20132;-77
2022/09/07 14:16:10;;;;;;;7.18;5.65;;;;;;;;;;5057775;28;20554;-77
2022/09/07 14:18:39;;;;;;;9.18;5.75;;;;;;;;;;5086041;28;20039;-76
2022/09/07 14:21:07;;;;;;;8.63;5.25;;;;;;;;;;5071821;28;20403;-77
2022/09/07 14:23:35;;;;;;;7.75;4.82;;;;;;;;;;5054779;28;20028;-78
2022/09/07 14:26:13;;;;;;;8.23;4.90;;;;;;;;;;5048144;28;20036;-77
2022/09/07 14:28:39;;;;;;;98.43;10.75;;;;;;;;;;5067658;28;20079;-76
2022/09/07 14:31:11;;;;;;;16.25;4.35;;;;;;;;;;5081284;28;20371;-76
2022/09/07 14:33:37;;;;;;;9.70;4.43;;;;;;;;;;5041177;28;20032;-77
2022/09/07 14:36:04;;;;;;;9.85;4.30;;;;;;;;;;5074869;28;20844;-77
2022/09/07 14:38:34;;;;;;;8.57;4.45;;;;;;;;;;5082674;28;20506;-77
2022/09/07 14:41:03;;;;;;;9.18;4.07;;;;;;;;;;5066269;28;20396;-77
2022/09/07 14:43:34;;;;;;;5.70;4.00;;;;;;;;;;5087253;28;20455;-77
2022/09/07 14:46:34;;;;;;;8.63;4.15;;;;;;;;;;5079859;28;20031;-77
2022/09/07 14:49:18;;;;;;;13.07;4.75;;;;;;;;;;5081545;28;20043;-78
2022/09/07 14:51:45;;;;;;;7.85;4.07;;;;;;;;;;5059914;28;20075;-77
2022/09/07 14:54:24;;;;;;;8.90;4.38;;;;;;;;;;5067864;28;20042;-77
2022/09/07 14:57:03;;;;;;;6.90;4.23;;;;;;;;;;5064829;28;20063;-76